Tompkinsville, KY

5:59 AM CST on March 02, 2015 (GMT -0600)
Bowling Green-Warren County Regional | Change Station
CLOSE
Current Station
Airport
Location: Bowling Green,
Elevation: 548 ft
Nearby Weather Stations

Elev 548 ft 36.96 °N, 86.42 °W | Updated 6 minutes ago

Overcast
Overcast
29 °F
Feels Like 21 °F
N
8
Wind Variable Wind from North

Today
High -- | Low -- °F
--% Chance of Precip.
Yesterday
High -- | Low -- °F
Precip. -- in
6:12 AM 5:37 PM
Waxing Gibbous, 91% visible
Pressure 30.51 in
Visibility 10.0 miles
Clouds Scattered Clouds 1600 ft
Windchill 21 °F
Dew Point 22 °F
Humidity 75%
Rainfall 0.00 in
Snow Depth Not available.
UV 0 out of 12
Pollen 1.20 out of 12
Air Quality Not available.
Flu Activity Not available.
METAR KBWG 021153Z AUTO 01007KT 10SM SCT016 M02/M06 A3050 RMK AO2 SLP331 60000 7//// T10171056 10017 21017 51026

More Conditions Fewer Conditions

Pressure 30.51 in
Visibility 10.0 miles
Clouds Scattered Clouds 1600 ft
Windchill 21 °F
Dew Point 22 °F
Humidity 75%
Rainfall 0.00 in
Snow Depth Not available.
UV 0 out of 12
Pollen 1.20 out of 12
Air Quality Not available.
Flu Activity Not available.
METAR KBWG 021153Z AUTO 01007KT 10SM SCT016 M02/M06 A3050 RMK AO2 SLP331 60000 7//// T10171056 10017 21017 51026

More Conditions Fewer Conditions

10-Day Weather Forecast

Almanac

Astronomy

Mar. 02, 2015 Rise Set
Actual Time
Civil Twilight
Nautical Twilight
Astronomical Twilight
Moon
Length of Visible Light
Length of Day
Tomorrow will be .
, % of the Moon is Illuminated

Today's Extremes

State Highs State Lows

Community

WunderPhotos

Upload Photos

1,801,757 photos uploaded!

WunderBlogs® & News

Nearby

Air Quality

  Air Quality AQ Index Pollutant
Not available.

Snow Depth

Station Depth Elevation

Earthquake Activity

City Distance Mag. Time & Date
Minimum magnitude displayed is 2.5.

Coastal Water Temperatures

Place Temperature

Nearby Weather Stations